sensor_id;sensor_type;location;lat;lon;timestamp;pressure;altitude;pressure_sealevel;temperature;humidity
79085;BME280;68486;42.808;23.422;2023-04-28T21:51:23;94289.84;;;5.84;63.51
79085;BME280;68486;42.808;23.422;2023-04-28T21:53:49;94289.69;;;5.77;64.54
79085;BME280;68486;42.808;23.422;2023-04-28T21:56:15;94284.47;;;5.61;63.33
79085;BME280;68486;42.808;23.422;2023-04-28T21:58:41;94287.22;;;5.60;63.83
79085;BME280;68486;42.808;23.422;2023-04-28T22:01:07;94283.31;;;5.56;64.10
79085;BME280;68486;42.808;23.422;2023-04-28T22:03:32;94293.69;;;5.56;64.47
79085;BME280;68486;42.808;23.422;2023-04-28T22:05:59;94290.44;;;5.53;65.06
79085;BME280;68486;42.808;23.422;2023-04-28T22:08:25;94290.81;;;5.59;64.85
79085;BME280;68486;42.808;23.422;2023-04-28T22:10:50;94290.47;;;5.62;65.60
79085;BME280;68486;42.808;23.422;2023-04-28T22:13:16;94288.47;;;5.47;63.55
79085;BME280;68486;42.808;23.422;2023-04-28T22:15:41;94290.91;;;5.49;65.14
79085;BME280;68486;42.808;23.422;2023-04-28T22:18:07;94282.94;;;5.34;64.55
79085;BME280;68486;42.808;23.422;2023-04-28T22:20:32;94254.66;;;5.23;64.32
79085;BME280;68486;42.808;23.422;2023-04-28T22:22:58;94282.75;;;5.28;64.59
79085;BME280;68486;42.808;23.422;2023-04-28T22:25:23;94278.06;;;5.31;63.72
79085;BME280;68486;42.808;23.422;2023-04-28T22:27:49;94279.84;;;5.31;64.07
79085;BME280;68486;42.808;23.422;2023-04-28T22:30:14;94280.63;;;5.23;63.93
79085;BME280;68486;42.808;23.422;2023-04-28T22:32:40;94286.81;;;5.30;63.73
79085;BME280;68486;42.808;23.422;2023-04-28T22:35:12;94274.81;;;5.29;64.07
79085;BME280;68486;42.808;23.422;2023-04-28T22:37:38;94268.66;;;5.30;62.68
79085;BME280;68486;42.808;23.422;2023-04-28T22:40:06;94266.69;;;5.24;63.95
79085;BME280;68486;42.808;23.422;2023-04-28T22:42:37;94266.84;;;5.31;64.79
79085;BME280;68486;42.808;23.422;2023-04-28T22:45:03;94263.44;;;5.22;64.69
79085;BME280;68486;42.808;23.422;2023-04-28T22:47:31;94254.31;;;5.18;64.82
79085;BME280;68486;42.808;23.422;2023-04-28T22:49:57;94255.66;;;5.30;64.95
79085;BME280;68486;42.808;23.422;2023-04-28T22:52:24;94238.59;;;5.28;65.41
79085;BME280;68486;42.808;23.422;2023-04-28T22:54:50;94255.97;;;5.27;64.16
79085;BME280;68486;42.808;23.422;2023-04-28T22:57:16;94251.28;;;5.31;65.64
79085;BME280;68486;42.808;23.422;2023-04-28T23:12:20;94238.31;;;5.47;64.64
79085;BME280;68486;42.808;23.422;2023-04-28T23:14:45;94225.31;;;5.47;61.32
79085;BME280;68486;42.808;23.422;2023-04-28T23:17:11;94231.03;;;5.67;60.53
79085;BME280;68486;42.808;23.422;2023-04-28T23:19:36;94235.56;;;5.48;63.89
79085;BME280;68486;42.808;23.422;2023-04-28T23:22:07;94219.25;;;5.14;66.20
79085;BME280;68486;42.808;23.422;2023-04-28T23:24:33;94220.91;;;5.23;66.30
79085;BME280;68486;42.808;23.422;2023-04-28T23:26:59;94189.03;;;5.05;67.26
79085;BME280;68486;42.808;23.422;2023-04-28T23:29:24;94217.81;;;5.36;65.43
79085;BME280;68486;42.808;23.422;2023-04-28T23:31:50;94222.56;;;5.40;64.79
79085;BME280;68486;42.808;23.422;2023-04-28T23:34:22;94221.41;;;5.35;65.15
79085;BME280;68486;42.808;23.422;2023-04-28T23:36:47;94216.03;;;5.28;65.91
79085;BME280;68486;42.808;23.422;2023-04-28T23:39:13;94207.91;;;5.23;65.81
79085;BME280;68486;42.808;23.422;2023-04-28T23:41:39;94201.09;;;5.22;65.88
79085;BME280;68486;42.808;23.422;2023-04-28T23:44:05;94203.88;;;5.37;66.37
79085;BME280;68486;42.808;23.422;2023-04-28T23:46:31;94184.84;;;5.12;65.48
79085;BME280;68486;42.808;23.422;2023-04-28T23:48:56;94198.34;;;5.23;65.73
79085;BME280;68486;42.808;23.422;2023-04-28T23:51:22;94210.53;;;5.31;64.24
79085;BME280;68486;42.808;23.422;2023-04-28T23:53:48;94206.31;;;5.22;66.06
79085;BME280;68486;42.808;23.422;2023-04-28T23:56:13;94203.00;;;5.12;65.03
79085;BME280;68486;42.808;23.422;2023-04-28T23:58:39;94199.53;;;4.87;65.14
